Time;durP1;ratioP1;P1;durP2;ratioP2;P2;SDS_P1;SDS_P2;PMS_P1;PMS_P2;Temp;Humidity;BMP_temperature;BMP_pressure;BME280_temperature;BME280_humidity;BME280_pressure;Samples;Min_cycle;Max_cycle;Signal;HPM_P1;HPM_P2
2023/09/05 00:00:10;;;;;;;;;;;;;;;24.90;40.26;101701.98;106629;1268;22516;-55
2023/09/05 00:02:38;;;;;;;;;;;;;;;24.90;40.67;101702.02;106628;1262;25469;-50
2023/09/05 00:05:07;;;;;;;;;;;;;;;24.88;41.08;101703.19;106789;1263;25344;-50
2023/09/05 00:07:35;;;;;;;;;;;;;;;24.87;40.98;101696.34;106802;1259;22532;-50
2023/09/05 00:10:03;;;;;;;;;;;;;;;24.84;41.18;101697.61;106827;1271;25385;-53
2023/09/05 00:12:30;;;;;;;;;;;;;;;24.82;41.25;101699.14;106826;1265;22650;-54
2023/09/05 00:14:57;;;;;;;;;;;;;;;24.81;41.50;101699.95;106779;1258;25381;-50
2023/09/05 00:17:24;;;;;;;;;;;;;;;24.79;41.47;101695.66;106411;1264;25433;-50
2023/09/05 00:19:51;;;;;;;;;;;;;;;24.78;41.65;101695.18;106764;1262;25466;-50
2023/09/05 00:22:19;;;;;;;;;;;;;;;24.76;41.84;101688.73;106777;1261;25315;-50
2023/09/05 00:24:46;;;;;;;;;;;;;;;24.74;41.74;101686.77;106895;1259;25302;-50
2023/09/05 00:27:13;;;;;;;;;;;;;;;24.72;41.79;101688.44;106702;1266;25399;-53
2023/09/05 00:29:40;;;;;;;;;;;;;;;24.70;41.64;101690.87;106621;1262;25305;-50
2023/09/05 00:32:08;;;;;;;;;;;;;;;24.68;42.15;101695.08;106815;1271;25490;-50
2023/09/05 00:34:37;;;;;;;;;;;;;;;24.66;42.03;101693.45;106562;1256;366837;-54
2023/09/05 00:37:04;;;;;;;;;;;;;;;24.71;42.10;101688.89;106940;1263;25259;-50
2023/09/05 00:39:31;;;;;;;;;;;;;;;24.63;42.34;101690.45;106854;1260;22852;-50
2023/09/05 00:41:58;;;;;;;;;;;;;;;24.61;42.52;101686.19;106840;1260;25466;-49
2023/09/05 00:44:25;;;;;;;;;;;;;;;24.60;42.66;101686.80;106693;1263;25393;-50
2023/09/05 00:46:54;;;;;;;;;;;;;;;24.56;42.31;101685.40;106754;1276;25353;-51
2023/09/05 00:49:22;;;;;;;;;;;;;;;24.53;42.29;101685.11;106727;1268;22739;-50
2023/09/05 00:51:50;;;;;;;;;;;;;;;24.50;42.39;101689.22;106708;1257;22510;-55
2023/09/05 00:54:17;;;;;;;;;;;;;;;24.47;42.73;101689.78;106494;1267;22528;-50
2023/09/05 00:56:44;;;;;;;;;;;;;;;24.44;42.23;101692.45;106599;1262;23270;-50
2023/09/05 00:59:11;;;;;;;;;;;;;;;24.40;42.15;101693.60;106371;1272;25315;-51
2023/09/05 01:01:38;;;;;;;;;;;;;;;24.37;42.73;101695.05;106664;1267;25396;-50
2023/09/05 01:04:05;;;;;;;;;;;;;;;24.35;42.71;101700.12;106591;1266;25319;-51
2023/09/05 01:06:32;;;;;;;;;;;;;;;24.33;42.90;101705.04;106567;1256;25670;-54
2023/09/05 01:09:05;;;;;;;;;;;;;;;24.30;43.28;101713.02;106694;1273;25457;-51
2023/09/05 01:11:32;;;;;;;;;;;;;;;24.29;43.24;101712.25;106858;1270;25576;-51
2023/09/05 01:13:59;;;;;;;;;;;;;;;24.25;42.77;101712.42;106763;1262;25315;-50
2023/09/05 01:16:26;;;;;;;;;;;;;;;24.21;42.61;101718.01;106834;1262;25316;-50
2023/09/05 01:18:53;;;;;;;;;;;;;;;24.17;43.19;101721.08;106739;1261;25392;-51
2023/09/05 01:21:30;;;;;;;;;;;;;;;24.15;43.63;101719.96;106725;1270;25319;-50
2023/09/05 01:24:11;;;;;;;;;;;;;;;24.13;43.64;101716.41;106821;1263;22510;-50
2023/09/05 01:26:38;;;;;;;;;;;;;;;24.11;43.56;101718.33;106561;1268;22499;-50
2023/09/05 01:29:05;;;;;;;;;;;;;;;24.08;43.58;101719.92;106807;1257;25420;-56
2023/09/05 01:31:32;;;;;;;;;;;;;;;24.05;43.84;101724.36;106882;1270;22513;-51
2023/09/05 01:33:59;;;;;;;;;;;;;;;24.03;44.14;101725.70;106746;1259;25312;-50
2023/09/05 01:36:26;;;;;;;;;;;;;;;24.00;43.60;101728.70;106836;1263;25368;-50
2023/09/05 01:38:53;;;;;;;;;;;;;;;23.98;43.68;101725.27;106751;1261;25392;-50
2023/09/05 01:41:20;;;;;;;;;;;;;;;23.95;43.72;101731.16;106714;1270;25306;-51
2023/09/05 01:43:47;;;;;;;;;;;;;;;23.93;43.85;101732.91;106832;1259;25431;-49
2023/09/05 01:46:14;;;;;;;;;;;;;;;23.91;43.85;101741.51;106872;1256;23554;-51
2023/09/05 01:48:41;;;;;;;;;;;;;;;23.90;44.23;101742.11;106759;1256;24884;-56
2023/09/05 01:51:09;;;;;;;;;;;;;;;23.90;44.47;101739.46;106853;1259;25347;-49
2023/09/05 01:53:36;;;;;;;;;;;;;;;23.88;44.44;101740.80;106640;1271;25366;-49
2023/09/05 01:56:03;;;;;;;;;;;;;;;23.87;44.77;101737.01;106803;1260;25344;-56
2023/09/05 01:58:30;;;;;;;;;;;;;;;23.84;44.83;101734.70;106616;1271;25385;-52
2023/09/05 02:01:00;;;;;;;;;;;;;;;23.82;44.69;101732.85;106529;1272;25334;-52
2023/09/05 02:03:27;;;;;;;;;;;;;;;23.80;44.80;101737.96;106382;1265;24304;-52
2023/09/05 02:05:55;;;;;;;;;;;;;;;23.78;44.78;101732.23;106672;1259;24192;-53
2023/09/05 02:08:22;;;;;;;;;;;;;;;23.74;44.84;101734.77;106830;1262;25383;-50
2023/09/05 02:10:49;;;;;;;;;;;;;;;23.72;44.80;101737.17;106797;1264;25472;-51
2023/09/05 02:13:17;;;;;;;;;;;;;;;23.69;44.64;101739.87;106868;1258;25580;-50
2023/09/05 02:15:44;;;;;;;;;;;;;;;23.65;44.48;101738.36;106764;1261;24192;-51
2023/09/05 02:18:11;;;;;;;;;;;;;;;23.61;45.04;101737.20;106721;1262;25305;-50
2023/09/05 02:20:38;;;;;;;;;;;;;;;23.58;45.41;101735.58;106840;1269;24024;-50
2023/09/05 02:23:06;;;;;;;;;;;;;;;23.56;45.13;101733.05;106742;1259;25341;-50
2023/09/05 02:25:33;;;;;;;;;;;;;;;23.53;45.22;101734.45;106787;1261;25334;-50
2023/09/05 02:28:00;;;;;;;;;;;;;;;23.51;45.26;101736.37;106831;1268;25378;-50
2023/09/05 02:30:27;;;;;;;;;;;;;;;23.48;44.85;101732.84;106814;1267;25316;-50
2023/09/05 02:32:54;;;;;;;;;;;;;;;23.45;44.82;101734.41;106742;1259;25314;-50
2023/09/05 02:35:24;;;;;;;;;;;;;;;23.44;45.41;101735.77;106727;1259;24169;-50
2023/09/05 02:37:51;;;;;;;;;;;;;;;23.42;45.47;101742.02;106792;1259;22510;-50
2023/09/05 02:40:18;;;;;;;;;;;;;;;23.41;45.61;101745.98;106916;1256;24187;-50
2023/09/05 02:42:45;;;;;;;;;;;;;;;23.39;45.66;101740.25;106753;1259;25313;-51
2023/09/05 02:45:12;;;;;;;;;;;;;;;23.37;45.66;101738.42;106788;1259;25315;-50
2023/09/05 02:47:39;;;;;;;;;;;;;;;23.36;45.61;101739.38;106805;1266;25390;-50
2023/09/05 02:50:07;;;;;;;;;;;;;;;23.33;45.67;101739.75;106593;1264;22528;-50
2023/09/05 02:52:34;;;;;;;;;;;;;;;23.30;45.95;101736.19;106783;1257;25376;-49
2023/09/05 02:55:15;;;;;;;;;;;;;;;23.28;46.36;101734.70;106719;1263;24225;-51
2023/09/05 02:57:42;;;;;;;;;;;;;;;23.27;46.19;101736.71;106844;1267;25393;-50
2023/09/05 03:00:09;;;;;;;;;;;;;;;23.25;46.14;101737.00;106859;1259;22543;-50
2023/09/05 03:02:40;;;;;;;;;;;;;;;23.23;46.12;101733.58;106779;1262;25468;-51
2023/09/05 03:05:07;;;;;;;;;;;;;;;23.22;46.07;101740.55;106750;1267;25306;-51
2023/09/05 03:07:34;;;;;;;;;;;;;;;23.21;45.91;101747.20;106825;1256;24360;-50
2023/09/05 03:10:01;;;;;;;;;;;;;;;23.19;46.22;101747.11;106570;1262;25399;-50
2023/09/05 03:12:29;;;;;;;;;;;;;;;23.16;46.27;101750.29;106771;1260;24361;-50
2023/09/05 03:14:56;;;;;;;;;;;;;;;23.15;46.61;101749.09;106634;1262;25399;-50
2023/09/05 03:17:23;;;;;;;;;;;;;;;23.14;46.44;101755.56;106796;1262;25306;-50
2023/09/05 03:19:50;;;;;;;;;;;;;;;23.12;46.57;101750.86;106869;1272;25318;-50
2023/09/05 03:22:17;;;;;;;;;;;;;;;23.11;46.80;101751.11;106872;1261;22631;-50
2023/09/05 03:24:44;;;;;;;;;;;;;;;23.10;46.86;101759.69;106688;1262;25320;-51
2023/09/05 03:27:13;;;;;;;;;;;;;;;23.08;46.87;101762.79;106749;1269;25462;-50
2023/09/05 03:29:40;;;;;;;;;;;;;;;23.07;46.64;101760.76;106732;1256;25296;-51
2023/09/05 03:32:06;;;;;;;;;;;;;;;23.03;46.72;101761.48;106730;1265;24205;-50
2023/09/05 03:34:34;;;;;;;;;;;;;;;23.01;46.70;101767.11;106775;1265;25316;-50
2023/09/05 03:37:01;;;;;;;;;;;;;;;23.02;46.97;101771.51;106745;1262;25465;-51
2023/09/05 03:39:28;;;;;;;;;;;;;;;23.01;47.11;101773.67;106761;1259;25315;-50
2023/09/05 03:41:55;;;;;;;;;;;;;;;23.00;47.28;101780.23;106828;1269;25364;-50
2023/09/05 03:44:23;;;;;;;;;;;;;;;23.01;47.74;101780.23;106714;1259;24172;-50
2023/09/05 03:46:50;;;;;;;;;;;;;;;23.02;47.82;101782.43;106841;1266;25427;-50
2023/09/05 03:49:17;;;;;;;;;;;;;;;23.02;47.40;101778.23;106824;1261;25343;-51
2023/09/05 03:51:44;;;;;;;;;;;;;;;23.00;47.27;101780.23;106745;1264;25321;-50
2023/09/05 03:54:12;;;;;;;;;;;;;;;23.00;47.19;101786.98;106575;1263;24047;-50
2023/09/05 03:56:39;;;;;;;;;;;;;;;23.01;47.58;101790.66;106756;1266;25396;-51
2023/09/05 03:59:06;;;;;;;;;;;;;;;23.11;47.41;101796.45;106761;1269;23861;-50
2023/09/05 04:01:33;;;;;;;;;;;;;;;23.17;47.23;101799.27;106907;1265;22626;-50
2023/09/05 04:04:00;;;;;;;;;;;;;;;23.19;47.55;101799.17;106575;1272;25482;-50
2023/09/05 04:06:27;;;;;;;;;;;;;;;23.20;47.58;101800.52;106602;1272;25344;-50
2023/09/05 04:08:54;;;;;;;;;;;;;;;23.19;47.42;101800.91;106728;1256;25364;-50
2023/09/05 04:11:21;;;;;;;;;;;;;;;23.20;47.30;101806.20;106743;1260;25396;-50
2023/09/05 04:13:48;;;;;;;;;;;;;;;23.20;47.27;101808.69;106758;1259;25351;-52
2023/09/05 04:16:15;;;;;;;;;;;;;;;23.20;47.61;101808.14;106854;1267;22518;-54
2023/09/05 04:18:42;;;;;;;;;;;;;;;23.20;47.43;101806.34;106831;1259;25313;-50
2023/09/05 04:21:09;;;;;;;;;;;;;;;23.20;47.65;101804.95;106882;1266;25305;-50
2023/09/05 04:23:37;;;;;;;;;;;;;;;23.21;47.39;101803.66;106779;1262;25427;-54
2023/09/05 04:26:04;;;;;;;;;;;;;;;23.20;47.64;101809.17;106727;1269;25767;-53
2023/09/05 04:28:32;;;;;;;;;;;;;;;23.20;47.87;101813.64;106943;1266;25372;-50
2023/09/05 04:31:02;;;;;;;;;;;;;;;23.26;47.67;101814.48;106732;1256;25316;-50
2023/09/05 04:33:37;;;;;;;;;;;;;;;23.32;47.51;101820.72;106762;1271;25307;-50
2023/09/05 04:36:08;;;;;;;;;;;;;;;23.31;47.66;101816.16;106785;1262;25324;-49
2023/09/05 04:38:35;;;;;;;;;;;;;;;23.35;47.93;101820.38;106847;1269;23876;-50
2023/09/05 04:41:02;;;;;;;;;;;;;;;23.37;48.14;101816.88;106711;1262;23197;-49
2023/09/05 04:43:30;;;;;;;;;;;;;;;23.40;47.74;101816.55;106790;1266;24182;-50
2023/09/05 04:45:56;;;;;;;;;;;;;;;23.39;47.37;101817.13;106598;1271;25316;-50
2023/09/05 04:48:24;;;;;;;;;;;;;;;23.30;47.64;101819.05;106763;1259;25296;-50
2023/09/05 04:50:51;;;;;;;;;;;;;;;23.28;47.82;101820.77;106522;1262;25344;-50
2023/09/05 04:53:18;;;;;;;;;;;;;;;23.28;47.90;101824.67;106862;1269;25308;-52
2023/09/05 04:55:46;;;;;;;;;;;;;;;23.28;48.08;101824.86;106818;1259;25466;-50
2023/09/05 04:58:13;;;;;;;;;;;;;;;23.27;47.99;101828.94;106807;1263;23890;-50
2023/09/05 05:00:41;;;;;;;;;;;;;;;23.27;48.25;101828.58;106547;1263;25393;-50
2023/09/05 05:03:08;;;;;;;;;;;;;;;23.30;48.55;101830.38;106447;1271;25344;-50
2023/09/05 05:05:35;;;;;;;;;;;;;;;23.34;48.08;101829.65;106810;1259;25466;-51
2023/09/05 05:08:02;;;;;;;;;;;;;;;23.37;48.16;101829.64;106802;1263;25319;-51
2023/09/05 05:10:33;;;;;;;;;;;;;;;23.39;48.00;101824.90;106671;1270;25395;-50
2023/09/05 05:13:00;;;;;;;;;;;;;;;23.41;47.84;101824.62;106816;1269;25337;-51
2023/09/05 05:15:27;;;;;;;;;;;;;;;23.43;47.69;101823.80;106773;1259;25381;-50
2023/09/05 05:17:54;;;;;;;;;;;;;;;23.44;47.82;101818.95;106813;1259;25296;-50
2023/09/05 05:20:21;;;;;;;;;;;;;;;23.46;47.92;101814.79;106791;1271;25315;-51
2023/09/05 05:22:48;;;;;;;;;;;;;;;23.48;47.54;101807.73;106728;1275;25312;-50
2023/09/05 05:25:15;;;;;;;;;;;;;;;23.51;47.55;101802.61;106791;1262;25369;-50
2023/09/05 05:27:43;;;;;;;;;;;;;;;23.52;47.47;101803.64;106839;1272;24220;-50
2023/09/05 05:30:10;;;;;;;;;;;;;;;23.54;47.64;101802.27;106817;1262;25376;-50
2023/09/05 05:32:37;;;;;;;;;;;;;;;23.58;48.15;101806.10;106873;1268;25316;-51
2023/09/05 05:35:04;;;;;;;;;;;;;;;23.62;47.80;101803.52;106874;1271;22611;-50
2023/09/05 05:37:31;;;;;;;;;;;;;;;23.68;48.05;101802.64;106872;1259;25411;-51
2023/09/05 05:39:58;;;;;;;;;;;;;;;23.72;48.06;101804.31;106755;1262;25306;-54
2023/09/05 05:42:25;;;;;;;;;;;;;;;23.77;47.77;101807.79;106460;1273;23861;-50
2023/09/05 05:44:52;;;;;;;;;;;;;;;23.79;47.57;101801.79;106732;1262;25343;-55
2023/09/05 05:47:18;;;;;;;;;;;;;;;23.83;47.54;101805.98;106728;1269;22502;-54
2023/09/05 05:49:45;;;;;;;;;;;;;;;23.86;47.09;101805.95;106882;1266;25356;-52
2023/09/05 05:52:12;;;;;;;;;;;;;;;23.90;47.28;101811.20;106777;1259;25306;-52
2023/09/05 05:54:39;;;;;;;;;;;;;;;23.92;47.42;101809.65;106810;1259;24028;-51
2023/09/05 05:57:06;;;;;;;;;;;;;;;23.98;47.44;101803.48;106746;1268;25306;-52
2023/09/05 05:59:33;;;;;;;;;;;;;;;24.02;46.99;101807.10;106787;1259;25319;-52
2023/09/05 06:02:00;;;;;;;;;;;;;;;24.09;47.50;101810.24;106760;1262;24196;-52
2023/09/05 06:04:27;;;;;;;;;;;;;;;24.18;47.23;101811.98;106709;1269;23872;-50
2023/09/05 06:06:54;;;;;;;;;;;;;;;24.26;46.97;101815.05;106873;1261;25466;-51
2023/09/05 06:09:21;;;;;;;;;;;;;;;24.35;46.72;101817.72;106811;1259;23883;-50
2023/09/05 06:11:48;;;;;;;;;;;;;;;24.45;46.49;101820.60;106762;1267;25350;-50
2023/09/05 06:14:15;;;;;;;;;;;;;;;24.56;46.12;101819.02;106610;1262;25465;-51
2023/09/05 06:16:44;;;;;;;;;;;;;;;24.67;45.75;101820.09;106712;1259;25330;-52
2023/09/05 06:19:12;;;;;;;;;;;;;;;24.75;45.57;101825.46;106842;1256;23876;-50
2023/09/05 06:21:40;;;;;;;;;;;;;;;24.83;45.60;101824.41;106792;1272;25465;-51
2023/09/05 06:24:07;;;;;;;;;;;;;;;24.90;45.35;101829.46;106854;1259;22520;-51
2023/09/05 06:26:34;;;;;;;;;;;;;;;24.95;45.25;101825.05;106751;1262;25357;-51
2023/09/05 06:29:01;;;;;;;;;;;;;;;24.98;45.35;101826.95;106572;1271;23269;-52
2023/09/05 06:31:30;;;;;;;;;;;;;;;25.01;44.90;101831.74;106703;1269;22508;-50
2023/09/05 06:33:57;;;;;;;;;;;;;;;25.02;44.88;101835.92;106246;1272;25306;-51
2023/09/05 06:36:24;;;;;;;;;;;;;;;25.04;44.96;101840.92;106654;1259;25399;-51
2023/09/05 06:38:51;;;;;;;;;;;;;;;25.06;45.24;101844.36;106408;1273;25306;-51
2023/09/05 06:41:18;;;;;;;;;;;;;;;25.09;45.02;101843.81;106600;1261;25232;-51
2023/09/05 06:43:45;;;;;;;;;;;;;;;25.13;45.14;101847.50;106717;1269;25328;-50
2023/09/05 06:46:13;;;;;;;;;;;;;;;25.16;45.09;101847.27;106677;1259;25311;-50
2023/09/05 06:48:40;;;;;;;;;;;;;;;25.18;45.03;101852.98;106774;1270;25312;-50
2023/09/05 06:51:07;;;;;;;;;;;;;;;25.21;45.05;101863.08;106765;1262;25328;-50
2023/09/05 06:53:34;;;;;;;;;;;;;;;25.24;45.00;101868.04;106629;1270;25316;-51
2023/09/05 06:56:01;;;;;;;;;;;;;;;25.27;45.25;101871.07;106859;1268;24191;-49
2023/09/05 06:58:28;;;;;;;;;;;;;;;25.29;44.96;101876.77;106559;1262;25308;-50
2023/09/05 07:00:56;;;;;;;;;;;;;;;25.29;45.04;101876.75;106832;1268;25343;-50
2023/09/05 07:03:24;;;;;;;;;;;;;;;25.28;45.17;101876.65;106792;1262;25473;-49
2023/09/05 07:05:54;;;;;;;;;;;;;;;25.29;45.27;101874.66;106803;1270;25343;-50
2023/09/05 07:08:24;;;;;;;;;;;;;;;25.28;45.05;101873.63;106775;1256;25396;-50
2023/09/05 07:10:51;;;;;;;;;;;;;;;25.30;45.21;101871.55;106737;1262;22645;-52
2023/09/05 07:13:18;;;;;;;;;;;;;;;25.34;45.21;101873.94;106792;1262;25315;-50
2023/09/05 07:15:45;;;;;;;;;;;;;;;25.37;44.83;101873.04;106756;1258;25393;-50
2023/09/05 07:18:12;;;;;;;;;;;;;;;25.41;45.49;101875.11;106828;1272;25296;-50
2023/09/05 07:20:39;;;;;;;;;;;;;;;25.45;46.02;101875.36;106845;1264;25330;-50
2023/09/05 07:23:06;;;;;;;;;;;;;;;25.50;46.31;101873.92;106837;1259;25320;-50
2023/09/05 07:25:36;;;;;;;;;;;;;;;25.61;46.35;101874.15;105980;1259;1003777;-50
2023/09/05 07:28:04;;;;;;;;;;;;;;;25.68;46.60;101873.80;106660;1263;25321;-50
2023/09/05 07:30:32;;;;;;;;;;;;;;;25.71;46.78;101872.03;106804;1269;25343;-50
2023/09/05 07:32:59;;;;;;;;;;;;;;;25.80;46.37;101874.60;106869;1266;25386;-52
2023/09/05 07:35:26;;;;;;;;;;;;;;;25.86;46.28;101871.53;106763;1260;25316;-50
2023/09/05 07:37:53;;;;;;;;;;;;;;;25.87;46.14;101868.27;106812;1270;25392;-50
2023/09/05 07:40:22;;;;;;;;;;;;;;;25.86;46.20;101868.54;106875;1269;25333;-57
2023/09/05 07:42:50;;;;;;;;;;;;;;;25.86;46.49;101870.32;106725;1266;22545;-53
2023/09/05 07:45:16;;;;;;;;;;;;;;;25.89;46.51;101870.64;106750;1270;25523;-50
2023/09/05 07:47:44;;;;;;;;;;;;;;;25.89;46.51;101878.95;106804;1256;25306;-50
2023/09/05 07:50:11;;;;;;;;;;;;;;;25.92;46.43;101883.95;106868;1259;25334;-50
2023/09/05 07:52:38;;;;;;;;;;;;;;;25.94;46.31;101889.48;106788;1271;25466;-50
2023/09/05 07:55:06;;;;;;;;;;;;;;;25.96;46.40;101886.70;106800;1264;24192;-50
2023/09/05 07:57:35;;;;;;;;;;;;;;;25.99;46.33;101886.49;106859;1269;24027;-50
2023/09/05 08:00:02;;;;;;;;;;;;;;;26.02;46.45;101889.27;106838;1270;25303;-50
2023/09/05 08:02:39;;;;;;;;;;;;;;;26.06;46.35;101891.16;106761;1262;25308;-50
2023/09/05 08:05:06;;;;;;;;;;;;;;;26.10;46.22;101892.84;106755;1259;24389;-52
2023/09/05 08:07:33;;;;;;;;;;;;;;;26.10;45.99;101891.95;106930;1259;22505;-50
2023/09/05 08:10:00;;;;;;;;;;;;;;;26.11;46.25;101891.92;106896;1272;26121;-50
2023/09/05 08:12:28;;;;;;;;;;;;;;;26.11;46.24;101886.70;106740;1267;25407;-56
2023/09/05 08:14:56;;;;;;;;;;;;;;;26.13;46.06;101887.80;106788;1269;25334;-50
2023/09/05 08:17:23;;;;;;;;;;;;;;;26.17;46.17;101888.07;106592;1262;25369;-50
2023/09/05 08:19:50;;;;;;;;;;;;;;;26.23;46.40;101886.22;106742;1271;25341;-51
2023/09/05 08:22:17;;;;;;;;;;;;;;;26.30;46.52;101881.14;106799;1272;25341;-50
2023/09/05 08:24:44;;;;;;;;;;;;;;;26.37;46.15;101876.34;106685;1269;25302;-50
2023/09/05 08:27:14;;;;;;;;;;;;;;;26.44;46.20;101872.30;106565;1276;25383;-50
2023/09/05 08:29:42;;;;;;;;;;;;;;;26.48;45.46;101875.21;106737;1269;25306;-50
2023/09/05 08:32:09;;;;;;;;;;;;;;;26.53;45.39;101875.23;106470;1275;25341;-54
2023/09/05 08:34:40;;;;;;;;;;;;;;;26.61;45.15;101878.20;106628;1278;25466;-50
2023/09/05 08:37:07;;;;;;;;;;;;;;;26.68;45.17;101881.75;106773;1269;25306;-50
2023/09/05 08:39:34;;;;;;;;;;;;;;;26.77;45.24;101877.95;106914;1266;25385;-50
2023/09/05 08:42:06;;;;;;;;;;;;;;;26.85;44.90;101879.17;106781;1266;24345;-50
2023/09/05 08:44:38;;;;;;;;;;;;;;;26.92;44.58;101884.90;106781;1266;22493;-50
2023/09/05 08:47:05;;;;;;;;;;;;;;;26.96;44.25;101883.16;106654;1273;22524;-51
2023/09/05 08:49:33;;;;;;;;;;;;;;;27.01;44.58;101878.73;106701;1259;25414;-50
2023/09/05 08:52:02;;;;;;;;;;;;;;;27.07;44.52;101872.36;106894;1265;25504;-50
2023/09/05 08:54:29;;;;;;;;;;;;;;;27.13;44.23;101874.23;106811;1259;25383;-51
2023/09/05 08:56:56;;;;;;;;;;;;;;;27.16;43.29;101877.37;106829;1262;25297;-50
2023/09/05 08:59:26;;;;;;;;;;;;;;;27.19;43.13;101882.70;106831;1259;24031;-50
2023/09/05 09:01:53;;;;;;;;;;;;;;;27.21;42.87;101886.26;106792;1259;22517;-50
2023/09/05 09:04:23;;;;;;;;;;;;;;;27.27;43.08;101890.80;106789;1268;25461;-50
2023/09/05 09:06:53;;;;;;;;;;;;;;;27.34;43.45;101888.38;106746;1270;25334;-50
2023/09/05 09:09:38;;;;;;;;;;;;;;;27.39;43.96;101891.60;106803;1262;25347;-51
2023/09/05 09:12:05;;;;;;;;;;;;;;;27.45;44.26;101888.52;106785;1259;23337;-51
2023/09/05 09:14:32;;;;;;;;;;;;;;;27.48;44.41;101887.86;106761;1269;25344;-52
2023/09/05 09:17:00;;;;;;;;;;;;;;;27.54;44.09;101886.38;106644;1260;25455;-51
2023/09/05 09:19:29;;;;;;;;;;;;;;;27.63;43.65;101886.53;106729;1260;22627;-53
2023/09/05 09:22:00;;;;;;;;;;;;;;;27.71;43.72;101883.42;106864;1264;23883;-52
2023/09/05 09:24:37;;;;;;;;;;;;;;;27.80;43.79;101882.08;106909;1255;22522;-51
2023/09/05 09:27:04;;;;;;;;;;;;;;;27.88;43.92;101878.06;106668;1270;25341;-56
2023/09/05 09:29:31;;;;;;;;;;;;;;;27.95;43.40;101878.77;106774;1269;25366;-52
2023/09/05 09:32:07;;;;;;;;;;;;;;;27.99;43.29;101874.19;106771;1269;22628;-49
2023/09/05 09:34:36;;;;;;;;;;;;;;;28.05;43.33;101876.18;106936;1266;25334;-50
2023/09/05 09:37:03;;;;;;;;;;;;;;;28.13;42.95;101866.52;106881;1273;25305;-50
2023/09/05 09:39:30;;;;;;;;;;;;;;;28.19;42.51;101867.63;106831;1260;25385;-50
2023/09/05 09:42:01;;;;;;;;;;;;;;;28.21;42.47;101866.02;106754;1260;25373;-49
2023/09/05 09:44:29;;;;;;;;;;;;;;;28.24;41.78;101866.16;106841;1268;25327;-51
2023/09/05 09:46:57;;;;;;;;;;;;;;;28.29;41.32;101871.61;106754;1270;24320;-50
2023/09/05 09:49:24;;;;;;;;;;;;;;;28.36;41.65;101868.77;106800;1270;25465;-49
2023/09/05 09:51:55;;;;;;;;;;;;;;;28.44;42.21;101870.27;106838;1268;25296;-49
2023/09/05 09:54:29;;;;;;;;;;;;;;;28.50;41.54;101870.84;106790;1260;25305;-50
2023/09/05 09:57:00;;;;;;;;;;;;;;;28.53;41.36;101869.33;106808;1270;25344;-51
2023/09/05 09:59:31;;;;;;;;;;;;;;;28.56;41.88;101869.48;106768;1269;24259;-50
2023/09/05 10:01:57;;;;;;;;;;;;;;;28.61;42.20;101867.49;106709;1263;24263;-50
2023/09/05 10:04:24;;;;;;;;;;;;;;;28.67;42.08;101863.41;106733;1269;25320;-49
2023/09/05 10:06:51;;;;;;;;;;;;;;;28.71;40.89;101867.91;106888;1268;25465;-50
2023/09/05 10:09:18;;;;;;;;;;;;;;;28.73;40.29;101860.23;106809;1274;25306;-50
2023/09/05 10:11:45;;;;;;;;;;;;;;;28.76;40.85;101858.23;106842;1274;23874;-50
2023/09/05 10:14:12;;;;;;;;;;;;;;;28.78;40.99;101859.98;106746;1268;22760;-50
2023/09/05 10:16:40;;;;;;;;;;;;;;;28.82;40.89;101859.70;106816;1273;22529;-49
2023/09/05 10:19:07;;;;;;;;;;;;;;;28.86;41.45;101858.80;106658;1270;25306;-50
2023/09/05 10:21:34;;;;;;;;;;;;;;;28.93;41.89;101861.95;106823;1269;25302;-50
2023/09/05 10:24:01;;;;;;;;;;;;;;;29.00;41.33;101861.10;106769;1266;24241;-50
2023/09/05 10:26:29;;;;;;;;;;;;;;;29.03;40.95;101863.92;106777;1270;25306;-49
2023/09/05 10:28:58;;;;;;;;;;;;;;;29.06;41.49;101857.56;106425;1278;25457;-51
2023/09/05 10:31:25;;;;;;;;;;;;;;;29.10;41.59;101857.22;106719;1258;22514;-53
2023/09/05 10:33:52;;;;;;;;;;;;;;;29.16;40.82;101858.04;106714;1270;25299;-49
2023/09/05 10:36:38;;;;;;;;;;;;;;;29.22;40.65;101862.00;106695;1272;25312;-54
2023/09/05 10:39:17;;;;;;;;;;;;;;;29.28;40.78;101863.46;106724;1261;25770;-49
2023/09/05 10:41:44;;;;;;;;;;;;;;;29.32;40.48;101861.16;106672;1276;22525;-49
2023/09/05 10:44:11;;;;;;;;;;;;;;;29.34;40.06;101859.86;106694;1270;25302;-51
2023/09/05 10:46:39;;;;;;;;;;;;;;;29.30;40.28;101858.77;106419;1274;25574;-50
2023/09/05 10:49:14;;;;;;;;;;;;;;;29.32;40.05;101861.34;106555;1272;25322;-50
2023/09/05 10:52:00;;;;;;;;;;;;;;;29.37;38.63;101864.48;106454;1273;25302;-51
2023/09/05 10:54:28;;;;;;;;;;;;;;;29.40;37.60;101861.58;106609;1272;25445;-50
2023/09/05 10:56:55;;;;;;;;;;;;;;;29.41;37.21;101857.35;106663;1265;25347;-51
2023/09/05 10:59:29;;;;;;;;;;;;;;;29.42;37.00;101856.52;106713;1262;22777;-50
2023/09/05 11:02:00;;;;;;;;;;;;;;;29.43;37.20;101859.64;106817;1270;25376;-50
2023/09/05 11:04:29;;;;;;;;;;;;;;;29.45;37.43;101859.20;106868;1270;25333;-49
2023/09/05 11:06:58;;;;;;;;;;;;;;;29.48;37.64;101862.84;106937;1264;24240;-50
2023/09/05 11:09:24;;;;;;;;;;;;;;;29.51;37.33;101858.97;106827;1256;23866;-49
2023/09/05 11:11:52;;;;;;;;;;;;;;;29.56;36.70;101859.83;106825;1272;25344;-50
2023/09/05 11:14:29;;;;;;;;;;;;;;;29.59;36.86;101862.38;106785;1258;25344;-50
2023/09/05 11:16:56;;;;;;;;;;;;;;;29.64;37.24;101861.59;106845;1270;25344;-51
2023/09/05 11:19:29;;;;;;;;;;;;;;;29.70;37.30;101858.79;106759;1275;25408;-50
2023/09/05 11:22:08;;;;;;;;;;;;;;;29.73;36.86;101860.49;106875;1270;25314;-52
2023/09/05 11:24:35;;;;;;;;;;;;;;;29.68;37.46;101859.90;106782;1271;25306;-51
2023/09/05 11:27:03;;;;;;;;;;;;;;;29.68;37.44;101858.20;106861;1270;23330;-52
2023/09/05 11:29:31;;;;;;;;;;;;;;;29.71;37.56;101862.66;106792;1260;25659;-54
2023/09/05 11:31:59;;;;;;;;;;;;;;;29.76;36.97;101861.14;106812;1267;25306;-50
2023/09/05 11:34:27;;;;;;;;;;;;;;;29.81;35.96;101863.07;106755;1269;25380;-51
2023/09/05 11:36:56;;;;;;;;;;;;;;;29.86;36.11;101857.60;106834;1264;25445;-50
2023/09/05 11:39:29;;;;;;;;;;;;;;;29.98;35.50;101857.84;106754;1270;25503;-50
2023/09/05 11:41:58;;;;;;;;;;;;;;;30.03;34.28;101855.06;106921;1270;25504;-50
2023/09/05 11:44:32;;;;;;;;;;;;;;;30.04;33.94;101849.41;106740;1273;25338;-50
2023/09/05 11:46:59;;;;;;;;;;;;;;;30.04;33.92;101850.37;106808;1268;25343;-50
2023/09/05 11:49:26;;;;;;;;;;;;;;;30.04;34.92;101847.63;106776;1257;25324;-51
2023/09/05 11:51:53;;;;;;;;;;;;;;;30.10;36.22;101842.41;106724;1261;25382;-51
2023/09/05 11:54:20;;;;;;;;;;;;;;;30.23;36.55;101842.39;106392;1270;25344;-51
2023/09/05 11:56:47;;;;;;;;;;;;;;;30.27;36.77;101840.06;106791;1261;25331;-51
2023/09/05 11:59:15;;;;;;;;;;;;;;;30.26;36.89;101838.55;106856;1260;25309;-50
2023/09/05 12:01:42;;;;;;;;;;;;;;;30.17;36.90;101838.10;106769;1260;25340;-50
2023/09/05 12:04:09;;;;;;;;;;;;;;;30.15;37.18;101838.29;106746;1270;22527;-50
2023/09/05 12:06:36;;;;;;;;;;;;;;;30.23;37.09;101839.16;106748;1268;25306;-50
2023/09/05 12:09:05;;;;;;;;;;;;;;;30.30;36.95;101835.02;106747;1270;25334;-55
2023/09/05 12:11:32;;;;;;;;;;;;;;;30.30;36.46;101831.95;106736;1270;24368;-51
2023/09/05 12:13:58;;;;;;;;;;;;;;;30.28;36.33;101834.77;106741;1264;25315;-51
2023/09/05 12:16:25;;;;;;;;;;;;;;;30.27;36.19;101833.79;106803;1257;24217;-50
2023/09/05 12:19:02;;;;;;;;;;;;;;;30.26;36.40;101832.48;107084;1261;25496;-51
2023/09/05 12:21:41;;;;;;;;;;;;;;;30.25;36.64;101825.90;106712;1262;25389;-49
2023/09/05 12:24:15;;;;;;;;;;;;;;;30.29;36.29;101826.14;106792;1256;25318;-50
2023/09/05 12:26:42;;;;;;;;;;;;;;;30.29;35.88;101821.81;106796;1260;22605;-51
2023/09/05 12:29:09;;;;;;;;;;;;;;;30.31;35.19;101822.00;106849;1261;25320;-51